Terminal Aerodrome Forecast
Issued by NWS

Home | Current Version | Previous Version | Text Only | Print | Product List | Glossary On
Versions: 1 2 3 4 5 6 7 8 9 10 11 12 13 14 15 16 17 18 19 20 21 22 23 24 25 26 27 28 29 30 31 32 33 34
000
FTUS41 KBOX 271133
TAFHYA
TAF
KHYA 271133Z 2712/2812 20010G18KT P6SM FEW007
     FM271500 21016KT P6SM BKN025
     FM271800 21017G26KT P6SM BKN015
     FM280200 21016KT 6SM BR BKN015
     FM280600 21016KT 6SM BR BKN010=

USA.gov is the U.S. government's official web portal to all federal, state and local government web resources and services.